logo
Rechercher aéroport 
image banner adimage banner adimage banner ad
image banner ad

LOKK - Hallegg Klagenfurt Schloss

Situé à District Klagenfurt Stadt, Austria

ICAO - , IATA -

Données fournies par Airmate  

Information générale

Coordonnées: N46°38'52" E14°14'42"
Élévation : 1493 feet MSL.
 
Voir autres Aéroports à Carinthia

Données opérationnelles

Special qualification required
Heure actuelle UTC:
Heure actuelle locale:
Météo à : LOWK - Klagenfurt ( 7 km )
METAR: LOWK 172020Z AUTO VRB02KT 9999 NCD 22/12 Q1017 NOSIG
TAF: TAF LOWK 171715Z 1718/1818 VRB04KT 9999 FEW040 TX30/1816Z TN15/1804Z
Voir NOTAMs / SUP AIP / TFR affectant cet aéroport [VIEW]
Fréquences de communication: [VIEW]

Pistes:

Coordonnées de l'aéroport

Adresse: District Klagenfurt Stadt Austria

Vue satellite de LOKK